createdAt,value
2022-08-25T00:01:37.828Z,16.23
2022-08-25T00:04:41.046Z,14.32
2022-08-25T00:07:44.668Z,14.45
2022-08-25T00:10:57.746Z,13.30
2022-08-25T00:14:16.744Z,13.32
2022-08-25T00:17:19.774Z,15.30
2022-08-25T00:20:22.514Z,13.95
2022-08-25T00:23:24.928Z,14.95
2022-08-25T00:26:27.722Z,13.70
2022-08-25T00:29:30.377Z,14.25
2022-08-25T00:32:32.397Z,14.80
2022-08-25T00:35:35.363Z,13.85
2022-08-25T00:38:38.163Z,15.25
2022-08-25T00:41:41.676Z,14.97
2022-08-25T00:44:44.090Z,15.80
2022-08-25T00:47:46.225Z,16.45
2022-08-25T00:50:48.260Z,15.32
2022-08-25T00:53:50.746Z,15.77
2022-08-25T00:56:53.327Z,15.13
2022-08-25T00:59:55.418Z,14.75
2022-08-25T01:02:58.119Z,14.95
2022-08-25T01:06:01.581Z,13.10
2022-08-25T01:09:04.060Z,14.23
2022-08-25T01:12:06.294Z,14.43
2022-08-25T01:15:09.851Z,13.57
2022-08-25T01:18:11.970Z,14.65
2022-08-25T01:21:14.336Z,15.57
2022-08-25T01:24:23.802Z,15.68
2022-08-25T01:27:25.856Z,14.07
2022-08-25T01:30:28.097Z,14.50
2022-08-25T01:33:30.083Z,14.25
2022-08-25T01:36:32.617Z,14.77
2022-08-25T01:39:36.670Z,13.82
2022-08-25T01:42:48.335Z,14.87
2022-08-25T01:45:50.551Z,14.88
2022-08-25T01:48:52.649Z,15.63
2022-08-25T01:52:05.379Z,15.27
2022-08-25T01:55:07.638Z,14.10
2022-08-25T01:58:09.679Z,13.90
2022-08-25T02:01:15.940Z,15.20
2022-08-25T02:04:18.068Z,15.85
2022-08-25T02:07:23.739Z,15.63
2022-08-25T02:10:25.783Z,14.23
2022-08-25T02:13:31.385Z,14.37
2022-08-25T02:16:35.396Z,14.43
2022-08-25T02:19:37.817Z,15.80
2022-08-25T02:22:39.875Z,15.57
2022-08-25T02:25:45.444Z,14.95
2022-08-25T02:28:48.067Z,14.47
2022-08-25T02:31:50.483Z,15.18
2022-08-25T02:34:52.488Z,14.27
2022-08-25T02:37:54.538Z,14.30
2022-08-25T02:40:57.150Z,16.48
2022-08-25T02:43:59.982Z,15.87
2022-08-25T02:47:03.148Z,15.27
2022-08-25T02:50:05.557Z,16.10
2022-08-25T02:53:07.997Z,15.00
2022-08-25T02:56:10.628Z,15.57
2022-08-25T02:59:12.705Z,16.67
2022-08-25T03:02:16.744Z,15.93
2022-08-25T03:05:19.085Z,15.75
2022-08-25T03:08:21.115Z,16.23
2022-08-25T03:11:24.066Z,17.95
2022-08-25T03:14:26.088Z,16.90
2022-08-25T03:17:28.299Z,16.02
2022-08-25T03:20:32.773Z,16.70
2022-08-25T03:23:35.139Z,17.05
2022-08-25T03:26:56.120Z,17.25
2022-08-25T03:29:58.180Z,15.70
2022-08-25T03:33:00.189Z,16.38
2022-08-25T03:36:02.400Z,17.10
2022-08-25T03:39:05.287Z,16.60
2022-08-25T03:42:08.361Z,17.30
2022-08-25T03:45:12.200Z,18.37
2022-08-25T03:48:14.666Z,16.80
2022-08-25T03:51:33.745Z,18.42
2022-08-25T03:54:35.759Z,17.20
2022-08-25T03:57:38.316Z,17.42
2022-08-25T04:00:40.765Z,17.13
2022-08-25T04:03:43.125Z,16.67
2022-08-25T04:06:45.209Z,17.70
2022-08-25T04:09:47.289Z,17.10
2022-08-25T04:12:49.428Z,17.17
2022-08-25T04:15:51.464Z,16.93
2022-08-25T04:18:54.931Z,18.15
2022-08-25T04:21:57.274Z,16.58
2022-08-25T04:24:59.649Z,16.85
2022-08-25T04:28:01.920Z,17.60
2022-08-25T04:31:10.944Z,18.60
2022-08-25T04:34:28.414Z,19.42
2022-08-25T04:37:33.488Z,23.15
2022-08-25T04:40:35.558Z,21.30
2022-08-25T04:43:38.676Z,20.25
2022-08-25T04:46:40.768Z,19.40
2022-08-25T04:49:43.435Z,19.00
2022-08-25T04:52:45.413Z,20.27
2022-08-25T04:55:48.225Z,16.77
2022-08-25T04:58:50.423Z,18.25
2022-08-25T05:01:52.490Z,15.40
2022-08-25T05:04:55.440Z,14.85
2022-08-25T05:07:57.541Z,15.73
2022-08-25T05:10:59.971Z,14.68
2022-08-25T05:14:05.232Z,14.27
2022-08-25T05:17:07.269Z,14.53
2022-08-25T05:20:09.465Z,13.98
2022-08-25T05:23:11.643Z,13.90
2022-08-25T05:26:19.613Z,13.85
2022-08-25T05:29:22.644Z,12.52
2022-08-25T05:32:24.821Z,12.67
2022-08-25T05:35:26.881Z,12.52
2022-08-25T05:38:30.425Z,12.32
2022-08-25T05:41:33.494Z,12.70
2022-08-25T05:44:35.538Z,12.70
2022-08-25T05:47:37.583Z,11.57
2022-08-25T05:50:39.583Z,10.88
2022-08-25T05:53:43.134Z,11.02
2022-08-25T05:56:45.592Z,10.52
2022-08-25T05:59:47.743Z,11.45
2022-08-25T06:02:51.104Z,10.97
2022-08-25T06:05:53.126Z,11.02
2022-08-25T06:08:55.122Z,11.40
2022-08-25T06:11:57.231Z,10.55
2022-08-25T06:14:59.570Z,10.85
2022-08-25T06:18:03.493Z,10.17
2022-08-25T06:21:12.910Z,9.23
2022-08-25T06:24:15.856Z,10.55
2022-08-25T06:27:18.506Z,9.38
2022-08-25T06:30:24.510Z,9.38
2022-08-25T06:33:31.198Z,9.37
2022-08-25T06:36:34.655Z,8.82
2022-08-25T06:39:36.657Z,8.27
2022-08-25T06:42:38.854Z,9.77
2022-08-25T06:45:44.136Z,9.52
2022-08-25T06:48:49.231Z,7.80
2022-08-25T06:51:51.491Z,9.77
2022-08-25T06:54:54.688Z,8.90
2022-08-25T06:57:56.726Z,8.75
2022-08-25T07:01:15.304Z,7.60
2022-08-25T07:04:21.825Z,8.37
2022-08-25T07:07:23.963Z,8.35
2022-08-25T07:10:26.170Z,8.15
2022-08-25T07:13:28.258Z,7.13
2022-08-25T07:16:32.827Z,7.28
2022-08-25T07:19:35.273Z,6.90
2022-08-25T07:22:37.388Z,7.63
2022-08-25T07:25:39.404Z,7.82
2022-08-25T07:28:47.259Z,8.63
2022-08-25T07:31:49.799Z,8.20
2022-08-25T07:35:10.505Z,7.43
2022-08-25T07:38:16.662Z,7.32
2022-08-25T07:41:23.148Z,8.18
2022-08-25T07:44:27.961Z,6.90
2022-08-25T07:47:30.422Z,7.63
2022-08-25T07:50:33.006Z,7.37
2022-08-25T07:53:35.076Z,7.30
2022-08-25T07:56:37.239Z,7.28
2022-08-25T07:59:40.416Z,7.93
2022-08-25T08:02:43.237Z,7.45
2022-08-25T08:05:45.471Z,10.23
2022-08-25T08:08:49.412Z,7.63
2022-08-25T08:11:54.424Z,7.88
2022-08-25T08:14:58.010Z,5.88
2022-08-25T08:18:00.602Z,6.75
2022-08-25T08:21:02.782Z,6.33
2022-08-25T08:24:14.813Z,6.28
2022-08-25T08:27:28.479Z,5.95
2022-08-25T08:30:30.638Z,6.45
2022-08-25T08:33:33.666Z,6.32
2022-08-25T08:36:43.340Z,6.47
2022-08-25T08:39:47.460Z,5.75
2022-08-25T08:43:04.106Z,5.78
2022-08-25T08:46:07.726Z,5.97
2022-08-25T08:49:26.823Z,5.78
2022-08-25T08:52:36.300Z,5.03
2022-08-25T08:55:39.257Z,5.20
2022-08-25T08:58:45.231Z,6.28
2022-08-25T09:01:54.067Z,4.75
2022-08-25T09:04:59.401Z,5.95
2022-08-25T09:08:10.837Z,5.43
2022-08-25T09:11:34.221Z,5.40
2022-08-25T09:14:41.590Z,5.65
2022-08-25T09:17:54.288Z,4.82
2022-08-25T09:21:12.382Z,4.63
2022-08-25T09:24:52.919Z,4.87
2022-08-25T09:27:54.926Z,4.90
2022-08-25T09:31:09.604Z,5.05
2022-08-25T09:34:22.164Z,4.70
2022-08-25T09:37:24.865Z,4.88
2022-08-25T09:40:28.460Z,4.93
2022-08-25T09:43:31.893Z,4.50
2022-08-25T09:46:34.089Z,4.53
2022-08-25T09:49:40.783Z,4.68
2022-08-25T09:52:44.497Z,4.55
2022-08-25T09:55:47.638Z,4.63
2022-08-25T09:58:50.031Z,4.80
2022-08-25T10:01:53.559Z,4.35
2022-08-25T10:04:56.548Z,4.70
2022-08-25T10:07:59.923Z,5.10
2022-08-25T10:11:05.050Z,4.90
2022-08-25T10:14:16.683Z,5.15
2022-08-25T10:17:29.571Z,3.92
2022-08-25T10:20:35.210Z,4.35
2022-08-25T10:23:40.835Z,4.50
2022-08-25T10:27:01.424Z,3.93
2022-08-25T10:30:03.494Z,4.13
2022-08-25T10:33:05.970Z,4.15
2022-08-25T10:36:22.798Z,3.95
2022-08-25T10:39:36.484Z,4.40
2022-08-25T10:42:42.897Z,4.10
2022-08-25T10:45:52.530Z,3.53
2022-08-25T10:48:57.390Z,3.25
2022-08-25T10:52:12.525Z,3.17
2022-08-25T10:55:26.095Z,3.83
2022-08-25T10:58:30.582Z,3.53
2022-08-25T11:01:42.956Z,3.75
2022-08-25T11:04:52.962Z,3.53
2022-08-25T11:08:18.667Z,3.20
2022-08-25T11:11:26.088Z,15.65
2022-08-25T11:14:37.268Z,8.43
2022-08-25T11:17:52.950Z,4.15
2022-08-25T11:20:54.926Z,4.40
2022-08-25T11:24:05.899Z,3.63
2022-08-25T11:27:13.711Z,3.70
2022-08-25T11:30:18.863Z,4.00
2022-08-25T11:33:23.713Z,3.63
2022-08-25T11:36:29.804Z,3.80
2022-08-25T11:39:40.962Z,3.60
2022-08-25T11:42:46.097Z,3.60
2022-08-25T11:45:57.134Z,3.80
2022-08-25T11:49:06.157Z,3.75
2022-08-25T11:52:30.782Z,4.60
2022-08-25T11:55:45.607Z,4.05
2022-08-25T11:58:50.086Z,4.20
2022-08-25T12:01:55.277Z,4.13
2022-08-25T12:04:57.991Z,4.10
2022-08-25T12:08:21.336Z,4.07
2022-08-25T12:11:38.736Z,3.97
2022-08-25T12:14:44.492Z,4.43
2022-08-25T12:18:08.931Z,3.70
2022-08-25T12:21:12.909Z,3.72
2022-08-25T12:24:20.761Z,4.47
2022-08-25T12:27:33.617Z,4.18
2022-08-25T12:30:39.076Z,3.33
2022-08-25T12:33:53.217Z,3.73
2022-08-25T12:36:59.368Z,4.10
2022-08-25T12:40:03.139Z,3.58
2022-08-25T12:43:07.937Z,2.80
2022-08-25T12:46:22.961Z,3.60
2022-08-25T12:49:32.735Z,3.50
2022-08-25T12:52:37.959Z,3.88
2022-08-25T12:55:44.311Z,4.18
2022-08-25T12:59:01.477Z,3.55
2022-08-25T13:02:23.336Z,4.22
2022-08-25T13:05:26.071Z,3.63
2022-08-25T13:08:48.047Z,3.60
2022-08-25T13:11:55.105Z,3.80
2022-08-25T13:15:00.233Z,3.28
2022-08-25T13:18:14.100Z,3.17
2022-08-25T13:21:20.689Z,3.27
2022-08-25T13:24:25.583Z,3.92
2022-08-25T13:27:28.194Z,4.80
2022-08-25T13:30:32.167Z,3.78
2022-08-25T13:33:34.754Z,3.25
2022-08-25T13:37:03.176Z,3.03
2022-08-25T13:40:10.177Z,3.50
2022-08-25T13:43:13.996Z,4.00
2022-08-25T13:46:21.064Z,4.72
2022-08-25T13:49:26.243Z,4.13
2022-08-25T13:52:29.285Z,3.17
2022-08-25T13:55:31.434Z,3.97
2022-08-25T13:58:45.597Z,3.63
2022-08-25T14:01:50.102Z,3.58
2022-08-25T14:04:52.938Z,3.30
2022-08-25T14:08:15.560Z,3.10
2022-08-25T14:11:31.902Z,3.28
2022-08-25T14:14:35.195Z,3.22
2022-08-25T14:17:40.323Z,3.13
2022-08-25T14:20:45.194Z,3.45
2022-08-25T14:23:47.260Z,4.30
2022-08-25T14:26:53.712Z,4.18
2022-08-25T14:29:56.672Z,3.83
2022-08-25T14:32:58.751Z,3.40
2022-08-25T14:36:02.676Z,3.40
2022-08-25T14:39:08.747Z,3.50
2022-08-25T14:42:11.686Z,3.95
2022-08-25T14:45:14.684Z,3.65
2022-08-25T14:48:30.589Z,3.80
2022-08-25T14:51:33.461Z,4.03
2022-08-25T14:54:38.200Z,4.00
2022-08-25T14:57:40.321Z,4.40
2022-08-25T15:00:43.797Z,3.95
2022-08-25T15:03:48.418Z,3.25
2022-08-25T15:06:54.557Z,3.88
2022-08-25T15:09:56.562Z,3.43
2022-08-25T15:12:58.648Z,4.35
2022-08-25T15:16:00.918Z,3.50
2022-08-25T15:19:09.651Z,3.33
2022-08-25T15:22:11.659Z,3.45
2022-08-25T15:25:14.324Z,3.93
2022-08-25T15:28:17.230Z,3.42
2022-08-25T15:31:20.557Z,3.75
2022-08-25T15:34:22.679Z,6.38
2022-08-25T15:37:24.652Z,3.55
2022-08-25T15:40:27.547Z,3.80
2022-08-25T15:43:29.727Z,3.63
2022-08-25T15:46:33.064Z,3.65
2022-08-25T15:49:35.572Z,3.90
2022-08-25T15:52:46.358Z,4.47
2022-08-25T15:55:54.096Z,3.50
2022-08-25T15:58:56.286Z,3.83
2022-08-25T16:01:58.415Z,4.85
2022-08-25T16:05:01.023Z,4.00
2022-08-25T16:08:04.367Z,5.03
2022-08-25T16:11:07.122Z,3.97
2022-08-25T16:14:09.628Z,3.97
2022-08-25T16:17:11.684Z,5.57
2022-08-25T16:20:16.115Z,4.47
2022-08-25T16:23:19.147Z,3.95
2022-08-25T16:26:21.433Z,4.20
2022-08-25T16:29:23.437Z,3.85
2022-08-25T16:32:25.777Z,3.92
2022-08-25T16:35:28.147Z,4.85
2022-08-25T16:38:31.489Z,4.63
2022-08-25T16:41:37.195Z,3.93
2022-08-25T16:44:41.430Z,4.03
2022-08-25T16:47:43.537Z,4.63
2022-08-25T16:50:45.559Z,4.50
2022-08-25T16:54:06.173Z,4.40
2022-08-25T16:57:08.930Z,4.40
2022-08-25T17:00:15.513Z,3.80
2022-08-25T17:03:17.509Z,3.88
2022-08-25T17:06:19.989Z,4.57
2022-08-25T17:09:23.962Z,5.03
2022-08-25T17:12:27.110Z,4.33
2022-08-25T17:15:29.158Z,4.00
2022-08-25T17:18:31.271Z,4.13
2022-08-25T17:21:35.505Z,4.05
2022-08-25T17:24:40.538Z,4.43
2022-08-25T17:27:43.220Z,4.90
2022-08-25T17:30:45.397Z,5.07
2022-08-25T17:33:47.819Z,4.47
2022-08-25T17:36:51.402Z,4.32
2022-08-25T17:39:56.747Z,4.45
2022-08-25T17:43:05.985Z,4.40
2022-08-25T17:46:12.106Z,5.53
2022-08-25T17:49:17.110Z,4.40
2022-08-25T17:52:22.477Z,5.22
2022-08-25T17:55:27.693Z,5.13
2022-08-25T17:58:29.968Z,5.17
2022-08-25T18:01:33.721Z,5.20
2022-08-25T18:04:36.644Z,4.82
2022-08-25T18:07:40.055Z,6.75
2022-08-25T18:10:45.077Z,6.55
2022-08-25T18:13:47.624Z,5.33
2022-08-25T18:16:53.959Z,5.10
2022-08-25T18:19:56.334Z,4.78
2022-08-25T18:22:58.910Z,5.97
2022-08-25T18:26:01.329Z,5.18
2022-08-25T18:29:04.118Z,5.00
2022-08-25T18:32:06.234Z,4.40
2022-08-25T18:35:08.830Z,4.60
2022-08-25T18:38:29.256Z,4.85
2022-08-25T18:41:36.573Z,4.65
2022-08-25T18:44:38.619Z,4.70
2022-08-25T18:47:41.801Z,4.35
2022-08-25T18:50:44.596Z,4.78
2022-08-25T18:53:50.456Z,5.82
2022-08-25T18:56:53.307Z,5.18
2022-08-25T18:59:56.081Z,4.90
2022-08-25T19:02:58.983Z,5.00
2022-08-25T19:06:02.587Z,5.13
2022-08-25T19:09:04.808Z,5.00
2022-08-25T19:12:06.960Z,5.15
2022-08-25T19:15:14.011Z,5.23
2022-08-25T19:18:16.151Z,5.22
2022-08-25T19:21:22.527Z,5.00
2022-08-25T19:24:24.900Z,5.60
2022-08-25T19:27:27.128Z,5.75
2022-08-25T19:30:29.936Z,4.83
2022-08-25T19:33:44.810Z,5.85
2022-08-25T19:36:48.312Z,5.35
2022-08-25T19:39:53.999Z,5.22
2022-08-25T19:42:56.067Z,5.07
2022-08-25T19:45:58.193Z,4.30
2022-08-25T19:49:06.316Z,5.22
2022-08-25T19:52:11.122Z,4.80
2022-08-25T19:55:13.240Z,4.93
2022-08-25T19:58:15.359Z,5.18
2022-08-25T20:01:20.113Z,5.13
2022-08-25T20:04:24.575Z,4.63
2022-08-25T20:07:28.586Z,5.50
2022-08-25T20:10:31.836Z,5.20
2022-08-25T20:13:37.876Z,5.25
2022-08-25T20:16:40.004Z,5.00
2022-08-25T20:19:42.779Z,5.40
2022-08-25T20:22:46.647Z,5.45
2022-08-25T20:25:48.832Z,5.43
2022-08-25T20:28:52.226Z,6.35
2022-08-25T20:31:54.232Z,4.77
2022-08-25T20:34:56.289Z,5.05
2022-08-25T20:37:58.758Z,6.50
2022-08-25T20:41:01.453Z,5.10
2022-08-25T20:44:05.261Z,5.18
2022-08-25T20:47:08.828Z,5.30
2022-08-25T20:50:11.982Z,5.53
2022-08-25T20:53:14.044Z,5.22
2022-08-25T20:56:16.946Z,5.45
2022-08-25T20:59:18.968Z,6.00
2022-08-25T21:02:22.393Z,5.60
2022-08-25T21:05:25.103Z,6.93
2022-08-25T21:08:27.921Z,6.22
2022-08-25T21:11:30.239Z,6.30
2022-08-25T21:14:32.949Z,6.00
2022-08-25T21:17:34.991Z,5.53
2022-08-25T21:20:36.983Z,6.40
2022-08-25T21:23:39.513Z,5.22
2022-08-25T21:26:48.670Z,5.95
2022-08-25T21:29:54.363Z,5.90
2022-08-25T21:32:57.509Z,5.73
2022-08-25T21:35:59.561Z,5.22
2022-08-25T21:39:01.620Z,5.35
2022-08-25T21:42:03.863Z,5.35
2022-08-25T21:45:07.673Z,6.25
2022-08-25T21:48:13.445Z,6.77
2022-08-25T21:51:21.204Z,8.85
2022-08-25T21:54:24.256Z,8.32
2022-08-25T21:57:26.302Z,8.48
2022-08-25T22:00:28.364Z,7.18
2022-08-25T22:03:30.397Z,7.47
2022-08-25T22:06:34.372Z,8.52
2022-08-25T22:09:36.658Z,9.25
2022-08-25T22:12:39.465Z,8.75
2022-08-25T22:15:41.502Z,9.07
2022-08-25T22:18:44.836Z,8.73
2022-08-25T22:21:46.819Z,8.43
2022-08-25T22:24:50.676Z,9.60
2022-08-25T22:27:56.697Z,8.80
2022-08-25T22:31:02.803Z,9.00
2022-08-25T22:34:04.876Z,9.50
2022-08-25T22:37:07.781Z,9.27
2022-08-25T22:40:10.613Z,9.63
2022-08-25T22:43:12.756Z,10.48
2022-08-25T22:46:14.974Z,10.65
2022-08-25T22:49:19.273Z,8.07
2022-08-25T22:52:33.270Z,8.20
2022-08-25T22:55:41.175Z,8.65
2022-08-25T22:58:43.779Z,7.07
2022-08-25T23:01:54.770Z,6.70
2022-08-25T23:04:57.824Z,6.70
2022-08-25T23:08:03.113Z,6.53
2022-08-25T23:11:05.204Z,6.55
2022-08-25T23:14:10.290Z,7.05
2022-08-25T23:17:12.495Z,8.48
2022-08-25T23:20:32.796Z,8.80
2022-08-25T23:23:36.105Z,9.88
2022-08-25T23:26:42.375Z,8.68
2022-08-25T23:29:46.360Z,8.05
2022-08-25T23:32:48.348Z,6.47
2022-08-25T23:36:00.152Z,5.80
2022-08-25T23:39:02.219Z,6.20
2022-08-25T23:42:04.713Z,6.15
2022-08-25T23:45:06.861Z,5.93
2022-08-25T23:48:08.899Z,6.32
2022-08-25T23:51:11.176Z,6.40
2022-08-25T23:54:13.443Z,6.07
2022-08-25T23:57:15.444Z,6.38
